• Join FlightAware (Why Join?)
  • Login
  • US Flag 
03:47PM EST


 

Airport Tracker/Info


-or-


 

Live Flight TrackerFlight Track Log ✈ N789EX ✈ 08-May-2014 ✈ KBFI - KMSO

Flight Track Log - Related Links

Times and Time Zones

All times are in EDT time to prevent confusion due to time zone crossing. See the N789EX flight status page for this flight to view local times or setup timezone preferences in your user account.

Time Position Orientation Groundspeed Altitude Reporting Facility
EDT Latitude Longitude Course Direction KTS MPH feet Rate Location/Type
10:41AM 47.4942 -122.2700 144° Southeast 176 203 1,800  Level FlightAware ADS-B
10:42AM 47.4834 -122.2580 144° Southeast 191 220 2,200 1,355 Climbing FlightAware ADS-B
10:42AM 47.4719 -122.2460 145° Southeast 211 243 2,500 1,200 Climbing FlightAware ADS-B
10:42AM 47.4589 -122.2330 146° Southeast 230 265 2,800 1,440 Climbing FlightAware ADS-B
10:42AM 47.4494 -122.2240 145° Southeast 241 277 3,100 1,714 Climbing FlightAware ADS-B
10:42AM 47.4467 -122.2210 143° Southeast 244 281 3,200 1,714 Climbing FlightAware ADS-B
10:42AM 47.4434 -122.2160 137° Southeast 248 285 3,300 1,714 Climbing FlightAware ADS-B
10:42AM 47.4404 -122.2120 131° Southeast 251 289 3,400 2,250 Climbing FlightAware ADS-B
10:43AM 47.4380 -122.2070 126° Southeast 253 291 3,600 2,571 Climbing FlightAware ADS-B
10:43AM 47.4358 -122.2020 120° Southeast 255 293 3,700 3,000 Climbing FlightAware ADS-B
10:43AM 47.4342 -122.1970 115° Southeast 256 295 3,900 3,000 Climbing FlightAware ADS-B
10:43AM 47.4329 -122.1920 111° Southeast 258 297 4,000 2,571 Climbing FlightAware ADS-B
10:43AM 47.4315 -122.1860 106° East 259 298 4,200 3,429 Climbing FlightAware ADS-B
10:43AM 47.4306 -122.1800 102° East 259 298 4,400 4,000 Climbing FlightAware ADS-B
10:43AM 47.4301 -122.1750 98° East 260 299 4,600 3,429 Climbing FlightAware ADS-B
10:43AM 47.4297 -122.1680 92° East 262 302 4,800 2,700 Climbing FlightAware ADS-B
10:43AM 47.4298 -122.1390 90° East 267 307 5,500 2,471 Climbing FlightAware ADS-B
10:43AM 47.4297 -122.1377 90° East 267 307 5,500 2,727 Level FlightAware ADS-B
10:43AM 47.4297 -122.1180 91° East 270 311 6,000 2,700 Climbing FlightAware ADS-B
10:44AM 47.4295 -122.1012 91° East 274 315 6,400 2,500 Climbing FlightAware ADS-B
10:44AM 47.4294 -122.0960 91° East 274 315 6,500 2,667 Climbing FlightAware ADS-B
10:44AM 47.4292 -122.0670 90° East 276 318 7,200 2,824 Climbing FlightAware ADS-B
10:44AM 47.4293 -122.0656 90° East 276 318 7,300 2,625 Climbing FlightAware ADS-B
10:44AM 47.4293 -122.0370 90° East 279 321 7,900 2,571 Climbing FlightAware ADS-B
10:44AM 47.4293 -122.0261 90° East 281 323 8,200 2,800 Climbing FlightAware ADS-B
10:44AM 47.4293 -122.0070 90° East 284 327 8,600 2,400 Climbing FlightAware ADS-B
10:45AM 47.4293 -121.9878 90° East 285 328 9,000 2,250 Climbing FlightAware ADS-B
10:45AM 47.4293 -121.9770 90° East 286 329 9,200 2,700 Climbing FlightAware ADS-B
10:45AM 47.4293 -121.9483 90° East 288 331 9,900 2,087 Climbing FlightAware ADS-B
10:45AM 47.4295 -121.8850 90° East 310 357 10,800 1,538 Climbing FlightAware ADS-B
10:46AM 47.4295 -121.8689 90° East 319 367 10,900 1,000 Climbing FlightAware ADS-B (CYVR)
10:46AM 47.4295 -121.8180 90° East 342 394 11,300 1,105 Climbing FlightAware ADS-B
10:46AM 47.4295 -121.7820 90° East 360 414 11,600 1,000 Climbing FlightAware ADS-B
10:46AM 47.4294 -121.7440 90° East 370 426 11,800 1,200 Climbing FlightAware ADS-B
10:47AM 47.4292 -121.6640 91° East 391 450 12,500 1,672 Climbing FlightAware ADS-B
10:47AM 47.4278 -121.5830 92° East 402 463 13,500 2,182 Climbing FlightAware ADS-B
10:47AM 47.4277 -121.5717 92° East 405 466 13,700 1,875 Climbing FlightAware ADS-B
10:48AM 47.4272 -121.5473 92° East 409 471 14,000 1,500 Climbing FlightAware ADS-B (CYVR)
10:48AM 47.4263 -121.4970 91° East 416 479 14,400 1,867 Climbing FlightAware ADS-B
10:48AM 47.4249 -121.4110 91° East 426 490 15,400 2,000 Climbing FlightAware ADS-B
10:49AM 47.4236 -121.3220 91° East 432 497 16,400 2,118 Climbing FlightAware ADS-B
10:49AM 47.4238 -121.3365 91° East 434 499 16,600 2,200 Climbing FlightAware ADS-B
10:49AM 47.4225 -121.2320 91° East 439 505 17,500 2,082 Climbing FlightAware ADS-B
10:50AM 47.4216 -121.1726 91° East 445 512 18,300 1,742 Climbing FlightAware ADS-B
10:50AM 47.4211 -121.1400 91° East 446 513 18,400 1,737 Climbing FlightAware ADS-B
10:50AM 47.4195 -121.0480 92° East 454 522 19,400 1,900 Climbing FlightAware ADS-B
10:51AM 47.4176 -120.9540 92° East 461 531 20,300 1,839 Climbing FlightAware ADS-B
10:51AM 47.4155 -120.8550 92° East 467 537 21,300 2,045 Climbing FlightAware ADS-B
10:52AM 47.4172 -120.9311 92° East 470 541 21,800 1,800 Climbing FlightAware ADS-B
10:52AM 47.4135 -120.7570 92° East 473 544 22,200 1,625 Climbing FlightAware ADS-B
10:52AM 47.4114 -120.6590 92° East 479 551 23,100 1,839 Climbing FlightAware ADS-B
10:53AM 47.4090 -120.5550 92° East 482 555 24,100 1,714 Climbing FlightAware ADS-B
10:54AM 47.4067 -120.4540 92° East 487 560 24,900 1,571 Climbing FlightAware ADS-B
10:54AM 47.4057 -120.4104 92° East 489 563 25,200 1,400 Climbing FlightAware ADS-B
10:54AM 47.4044 -120.3520 92° East 492 566 25,600 1,418 Climbing FlightAware ADS-B
10:55AM 47.4013 -120.2330 92° East 499 574 26,500 1,857 Climbing FlightAware ADS-B
10:55AM 47.4057 -120.4104 92° East 496 571 26,900 1,400 Climbing FlightAware ADS-B
10:55AM 47.3986 -120.1280 92° East 504 580 27,200 1,071 Climbing FlightAware ADS-B
10:56AM 47.3956 -120.0170 92° East 508 585 27,900 1,313 Climbing FlightAware ADS-B
10:56AM 47.3927 -119.9080 92° East 515 593 28,600 1,241 Climbing FlightAware ADS-B
10:57AM 47.3897 -119.8130 93° East 520 598 29,100 1,258 Climbing FlightAware ADS-B
10:57AM 47.3822 -119.6890 94° East 520 598 29,900 1,433 Climbing FlightAware ADS-B
10:58AM 47.3748 -119.5770 96° East 523 602 30,700 1,586 Climbing FlightAware ADS-B
10:59AM 47.3619 -119.4067 96° East 521 600 32,200 1,525 Climbing Salt Lake Center
11:00AM 47.3492 -119.2006 95° East 518 596 33,700 1,415 Climbing Seattle Center
11:01AM 47.3361 -118.9919 95° East 515 593 35,100 1,131 Climbing Seattle Center
11:02AM 47.3222 -118.7850 96° East 510 587 36,000 787 Climbing Seattle Center
11:03AM 47.3083 -118.5758 96° East 514 592 36,700 496 Climbing Seattle Center
11:04AM 47.2933 -118.3642 96° East 519 597 37,000 149 Climbing Seattle Center
11:05AM 47.2786 -118.1544 96° East 519 597 37,000  Level Seattle Center
11:06AM 47.2606 -117.9047 96° East 518 596 37,000 -49 Level Seattle Center
11:07AM 47.2439 -117.6958 97° East 517 595 36,900  Descending Seattle Center
11:08AM 47.2281 -117.4889 96° East 517 595 37,000  Climbing Seattle Center
11:09AM 47.2125 -117.2811 96° East 517 595 36,900 -49 Descending Seattle Center
11:10AM 47.1947 -117.0742 97° East 519 597 36,900  Level Seattle Center
11:11AM 47.1789 -116.8672 96° East 518 596 36,900  Level Seattle Center
11:12AM 47.1611 -116.6597 97° East 518 596 36,900 49 Level Seattle Center
11:13AM 47.1422 -116.4539 98° East 515 593 37,000 -295 Climbing Seattle Center
11:14AM 47.1211 -116.2047 97° East 515 593 36,300 -1,082 Descending Seattle Center
11:15AM 47.1022 -116.0025 98° East 507 583 34,800 -1,918 Descending Seattle Center
11:16AM 47.0825 -115.7969 98° East 507 583 32,400 -2,213 Descending Seattle Center
11:17AM 47.0628 -115.5897 98° East 512 589 30,300 -2,508 Descending Seattle Center
11:18AM 47.0436 -115.3900 98° East 504 580 27,300 -3,639 Descending Seattle Center
11:19AM 47.0267 -115.2153 98° East 479 551 22,900 -4,314 Descending Seattle Center
11:20AM 47.0086 -115.0414 99° East 448 516 18,600 -3,917 Descending Seattle Center
11:21AM 46.9883 -114.8483 99° East 410 472 15,000 -2,066 Descending Seattle Center
11:22AM 46.9739 -114.7050 98° East 373 429 14,400 -1,230 Descending Seattle Center
11:23AM 46.9628 -114.5853 98° East 315 362 12,500 -1,672 Descending Seattle Center
11:24AM 46.9503 -114.4725 99° East 297 342 11,000 -1,131 Descending Seattle Center
11:25AM 46.9394 -114.3675 99° East 283 326 10,200 -885 Descending Seattle Center
11:26AM 46.9292 -114.2728 99° East 266 306 9,200 -1,230 Descending Seattle Center
11:27AM 46.9072 -114.2006 114° Southeast 240 276 7,700 -1,525 Descending Seattle Center
11:28AM 46.8717 -114.1392 130° Southeast 212 244 6,100 -1,113 Descending Seattle Center
11:30AM 46.8408 -114.0411 115° Southeast 164 189 4,900 -711 Descending Salt Lake Center
11:31AM 46.8750 -114.0231 20° North 164 189 4,300 -774 Descending Salt Lake Center
11:32AM 46.9067 -114.0761 311° West 163 188 3,300 -968 Descending Salt Lake Center